createdAt,value
2023-05-12T00:01:56.733Z,40.51
2023-05-12T00:06:59.389Z,40.93
2023-05-12T00:12:02.525Z,40.92
2023-05-12T00:17:06.633Z,40.92
2023-05-12T00:22:11.346Z,41.14
2023-05-12T00:27:14.637Z,41.56
2023-05-12T00:32:17.294Z,41.85
2023-05-12T00:37:20.331Z,41.87
2023-05-12T00:42:22.935Z,42.01
2023-05-12T00:47:25.885Z,42.26
2023-05-12T00:52:28.721Z,42.26
2023-05-12T00:57:33.849Z,42.54
2023-05-12T01:02:37.112Z,42.67
2023-05-12T01:07:40.404Z,42.88
2023-05-12T01:12:42.974Z,43.16
2023-05-12T01:17:54.300Z,43.28
2023-05-12T01:22:59.376Z,43.51
2023-05-12T01:28:03.528Z,43.70
2023-05-12T01:33:06.252Z,43.82
2023-05-12T01:38:08.906Z,44.17
2023-05-12T01:43:11.470Z,44.72
2023-05-12T01:48:14.465Z,44.92
2023-05-12T01:53:17.016Z,45.30
2023-05-12T01:58:20.478Z,45.53
2023-05-12T02:03:23.375Z,45.70
2023-05-12T02:08:26.438Z,45.72
2023-05-12T02:13:29.293Z,45.92
2023-05-12T02:18:31.963Z,46.21
2023-05-12T02:23:34.665Z,46.83
2023-05-12T02:28:37.641Z,47.04
2023-05-12T02:33:40.261Z,47.33
2023-05-12T02:38:44.114Z,47.79
2023-05-12T02:43:46.648Z,48.12
2023-05-12T02:48:49.210Z,48.20
2023-05-12T02:53:51.852Z,48.42
2023-05-12T02:58:54.453Z,48.96
2023-05-12T03:03:57.051Z,49.02
2023-05-12T03:08:59.852Z,49.60
2023-05-12T03:14:02.418Z,49.68
2023-05-12T03:19:05.353Z,49.58
2023-05-12T03:24:08.681Z,49.31
2023-05-12T03:29:11.279Z,48.77
2023-05-12T03:34:13.806Z,48.25
2023-05-12T03:39:16.375Z,47.41
2023-05-12T03:44:19.007Z,46.65
2023-05-12T03:49:21.765Z,45.75
2023-05-12T03:54:24.616Z,45.06
2023-05-12T03:59:31.048Z,44.17
2023-05-12T04:04:33.567Z,43.43
2023-05-12T04:09:36.241Z,42.85
2023-05-12T04:14:43.160Z,42.12
2023-05-12T04:19:46.778Z,41.35
2023-05-12T04:24:49.660Z,40.69
2023-05-12T04:29:52.249Z,39.98
2023-05-12T04:34:56.592Z,39.01
2023-05-12T04:39:59.138Z,38.26
2023-05-12T04:45:01.990Z,37.63
2023-05-12T04:50:05.784Z,36.83
2023-05-12T04:55:09.452Z,35.92
2023-05-12T05:00:13.135Z,35.23
2023-05-12T05:05:15.948Z,34.49
2023-05-12T05:10:18.553Z,33.39
2023-05-12T05:15:21.767Z,32.34
2023-05-12T05:20:28.773Z,32.13
2023-05-12T05:25:31.870Z,31.53
2023-05-12T05:30:34.468Z,30.59
2023-05-12T05:35:37.308Z,29.86
2023-05-12T05:40:52.314Z,29.63
2023-05-12T05:45:58.222Z,28.94
2023-05-12T05:51:00.785Z,28.20
2023-05-12T05:56:05.380Z,27.67
2023-05-12T06:01:08.110Z,26.78
2023-05-12T06:06:10.828Z,26.86
2023-05-12T06:11:13.757Z,26.60
2023-05-12T06:16:17.259Z,26.05
2023-05-12T06:21:19.985Z,25.11
2023-05-12T06:26:22.622Z,24.92
2023-05-12T06:31:25.251Z,24.62
2023-05-12T06:36:28.895Z,24.68
2023-05-12T06:41:33.615Z,24.51
2023-05-12T06:46:36.423Z,24.35
2023-05-12T06:51:39.185Z,23.79
2023-05-12T06:56:41.782Z,23.73
2023-05-12T07:01:44.454Z,23.51
2023-05-12T07:06:47.163Z,22.83
2023-05-12T07:11:49.902Z,22.22
2023-05-12T07:16:52.612Z,22.17
2023-05-12T07:21:55.418Z,22.00
2023-05-12T07:26:58.445Z,21.76
2023-05-12T07:32:01.056Z,21.57
2023-05-12T07:37:04.354Z,21.67
2023-05-12T07:42:07.252Z,21.18
2023-05-12T07:47:10.014Z,21.41
2023-05-12T07:52:12.787Z,21.08
2023-05-12T07:57:15.660Z,19.98
2023-05-12T08:02:18.457Z,19.95
2023-05-12T08:07:21.372Z,19.49
2023-05-12T08:12:24.374Z,19.25
2023-05-12T08:17:29.159Z,18.87
2023-05-12T08:22:32.466Z,18.59
2023-05-12T08:27:35.005Z,18.32
2023-05-12T08:32:37.996Z,17.80
2023-05-12T08:37:40.658Z,17.35
2023-05-12T08:42:55.858Z,17.37
2023-05-12T08:47:59.903Z,17.48
2023-05-12T08:53:05.725Z,17.35
2023-05-12T08:58:09.682Z,17.24
2023-05-12T09:03:15.295Z,17.08
2023-05-12T09:08:18.464Z,17.26
2023-05-12T09:13:36.546Z,17.33
2023-05-12T09:18:58.770Z,17.25
2023-05-12T09:24:08.942Z,17.41
2023-05-12T09:29:20.758Z,17.47
2023-05-12T09:34:37.451Z,17.35
2023-05-12T09:39:40.613Z,17.57
2023-05-12T09:44:43.593Z,17.58
2023-05-12T09:49:52.199Z,17.80
2023-05-12T09:54:54.880Z,17.90
2023-05-12T09:59:57.575Z,17.98
2023-05-12T10:05:06.729Z,17.91
2023-05-12T10:10:16.199Z,17.65
2023-05-12T10:15:20.572Z,17.75
2023-05-12T10:20:24.908Z,17.83
2023-05-12T10:25:29.159Z,17.97
2023-05-12T10:30:32.770Z,18.17
2023-05-12T10:35:38.197Z,18.35
2023-05-12T10:41:01.244Z,18.69
2023-05-12T10:46:13.408Z,18.86
2023-05-12T10:51:43.464Z,18.93
2023-05-12T10:56:46.862Z,19.24
2023-05-12T11:02:26.192Z,19.36
2023-05-12T11:07:35.418Z,19.39
2023-05-12T11:12:38.509Z,19.59
2023-05-12T11:17:41.499Z,19.78
2023-05-12T11:22:44.285Z,19.95
2023-05-12T11:27:50.687Z,20.03
2023-05-12T11:33:03.781Z,20.12
2023-05-12T11:38:17.187Z,20.03
2023-05-12T11:43:24.654Z,20.17
2023-05-12T11:48:36.094Z,20.25
2023-05-12T11:53:41.145Z,20.18
2023-05-12T11:58:58.810Z,20.20
2023-05-12T12:04:01.564Z,20.30
2023-05-12T12:09:04.316Z,20.35
2023-05-12T12:14:08.557Z,20.41
2023-05-12T12:19:11.272Z,20.45
2023-05-12T12:24:14.278Z,20.66
2023-05-12T12:29:17.872Z,20.80
2023-05-12T12:34:20.587Z,20.84
2023-05-12T12:39:23.391Z,20.91
2023-05-12T12:44:26.154Z,20.93
2023-05-12T12:49:28.936Z,20.94
2023-05-12T12:54:31.563Z,20.92
2023-05-12T12:59:34.098Z,21.00
2023-05-12T13:04:37.009Z,21.00
2023-05-12T13:09:39.623Z,21.00
2023-05-12T13:14:42.225Z,21.08
2023-05-12T13:19:44.788Z,21.26
2023-05-12T13:24:48.014Z,21.43
2023-05-12T13:29:50.593Z,21.40
2023-05-12T13:34:53.473Z,21.42
2023-05-12T13:39:56.369Z,21.48
2023-05-12T13:44:59.027Z,21.36
2023-05-12T13:50:01.883Z,21.53
2023-05-12T13:55:05.428Z,21.55
2023-05-12T14:00:09.126Z,21.64
2023-05-12T14:05:12.044Z,21.81
2023-05-12T14:10:15.197Z,21.82
2023-05-12T14:20:23.292Z,21.81
2023-05-12T14:25:26.187Z,21.89
2023-05-12T14:30:29.254Z,21.89
2023-05-12T14:35:32.612Z,21.91
2023-05-12T14:40:35.231Z,21.83
2023-05-12T14:45:38.289Z,21.71
2023-05-12T14:50:42.809Z,21.85
2023-05-12T14:55:45.716Z,21.92
2023-05-12T15:00:51.256Z,21.99
2023-05-12T15:06:05.510Z,22.07
2023-05-12T15:11:10.467Z,22.10
2023-05-12T15:16:13.584Z,22.21
2023-05-12T15:21:17.471Z,22.28
2023-05-12T15:26:32.790Z,22.39
2023-05-12T15:31:37.515Z,22.51
2023-05-12T15:36:40.264Z,22.61
2023-05-12T15:41:43.238Z,22.66
2023-05-12T15:46:46.380Z,22.66
2023-05-12T15:51:49.046Z,22.60
2023-05-12T15:56:51.601Z,22.80
2023-05-12T16:01:55.434Z,22.84
2023-05-12T16:06:58.105Z,22.74
2023-05-12T16:12:01.243Z,22.70
2023-05-12T16:17:04.198Z,22.67
2023-05-12T16:22:06.812Z,22.73
2023-05-12T16:27:09.426Z,22.80
2023-05-12T16:32:12.109Z,22.84
2023-05-12T16:37:14.810Z,23.01
2023-05-12T16:42:17.488Z,23.30
2023-05-12T16:47:20.760Z,23.51
2023-05-12T16:52:23.472Z,23.83
2023-05-12T16:57:26.848Z,24.10
2023-05-12T17:02:29.511Z,24.18
2023-05-12T17:07:35.161Z,24.33
2023-05-12T17:12:37.876Z,24.57
2023-05-12T17:17:40.636Z,24.69
2023-05-12T17:22:47.156Z,24.85
2023-05-12T17:27:50.332Z,25.10
2023-05-12T17:32:53.578Z,25.37
2023-05-12T17:37:56.366Z,25.59
2023-05-12T17:42:59.080Z,26.01
2023-05-12T17:48:02.624Z,26.23
2023-05-12T17:53:06.662Z,26.40
2023-05-12T17:58:09.260Z,26.52
2023-05-12T18:03:12.115Z,26.64
2023-05-12T18:08:14.850Z,26.75
2023-05-12T18:13:17.476Z,26.80
2023-05-12T18:18:20.116Z,27.06
2023-05-12T18:23:22.722Z,27.17
2023-05-12T18:28:25.329Z,27.30
2023-05-12T18:33:28.019Z,27.47
2023-05-12T18:38:30.606Z,27.77
2023-05-12T18:43:34.830Z,28.11
2023-05-12T18:48:37.494Z,28.38
2023-05-12T18:53:40.288Z,28.58
2023-05-12T18:58:42.910Z,28.90
2023-05-12T19:03:45.559Z,29.07
2023-05-12T19:08:48.508Z,29.21
2023-05-12T19:13:52.299Z,29.50
2023-05-12T19:18:55.450Z,29.83
2023-05-12T19:23:58.184Z,30.09
2023-05-12T19:29:02.066Z,30.39
2023-05-12T19:34:04.845Z,30.99
2023-05-12T19:39:07.386Z,31.39
2023-05-12T19:44:10.043Z,31.88
2023-05-12T19:49:13.899Z,32.15
2023-05-12T19:54:16.560Z,32.53
2023-05-12T19:59:19.202Z,32.97
2023-05-12T20:04:23.336Z,33.33
2023-05-12T20:09:26.107Z,33.82
2023-05-12T20:14:28.815Z,34.26
2023-05-12T20:19:33.477Z,34.55
2023-05-12T20:24:36.379Z,34.90
2023-05-12T20:29:39.476Z,35.34
2023-05-12T20:34:42.238Z,35.70
2023-05-12T20:39:44.994Z,36.04
2023-05-12T20:44:47.627Z,36.41
2023-05-12T20:49:57.002Z,36.90
2023-05-12T20:54:59.947Z,37.35
2023-05-12T21:00:02.868Z,37.71
2023-05-12T21:05:06.223Z,37.90
2023-05-12T21:10:09.334Z,38.07
2023-05-12T21:15:13.048Z,38.55
2023-05-12T21:20:15.589Z,38.85
2023-05-12T21:25:18.219Z,39.21
2023-05-12T21:30:21.605Z,39.54
2023-05-12T21:35:24.539Z,39.85
2023-05-12T21:40:27.157Z,40.10
2023-05-12T21:45:29.833Z,40.69
2023-05-12T21:50:32.389Z,41.12
2023-05-12T21:55:34.971Z,41.65
2023-05-12T22:00:38.839Z,41.85
2023-05-12T22:05:41.433Z,41.56
2023-05-12T22:10:44.299Z,42.25
2023-05-12T22:15:46.894Z,42.87
2023-05-12T22:20:49.553Z,42.95
2023-05-12T22:25:52.300Z,42.99
2023-05-12T22:30:54.884Z,43.67
2023-05-12T22:36:01.354Z,44.17
2023-05-12T22:41:04.056Z,44.49
2023-05-12T22:46:09.458Z,44.92
2023-05-12T22:51:12.202Z,44.85
2023-05-12T22:56:15.822Z,45.47
2023-05-12T23:01:18.834Z,45.91
2023-05-12T23:06:21.473Z,46.13
2023-05-12T23:11:24.128Z,46.70
2023-05-12T23:16:26.978Z,46.96
2023-05-12T23:21:29.670Z,47.36
2023-05-12T23:26:32.649Z,47.63
2023-05-12T23:31:35.271Z,47.76
2023-05-12T23:36:38.058Z,48.29
2023-05-12T23:41:40.796Z,48.63
2023-05-12T23:46:43.673Z,48.90
2023-05-12T23:51:46.583Z,49.19
2023-05-12T23:56:49.231Z,49.38
